createdAt,value
2023-01-19T00:01:55.622Z,1.70
2023-01-19T00:04:44.068Z,1.70
2023-01-19T00:07:31.532Z,1.70
2023-01-19T00:10:20.975Z,1.60
2023-01-19T00:18:00.352Z,1.60
2023-01-19T00:20:49.322Z,1.60
2023-01-19T00:23:48.571Z,1.90
2023-01-19T00:28:36.684Z,1.50
2023-01-19T00:40:44.497Z,1.40
2023-01-19T00:43:31.291Z,1.40
2023-01-19T00:56:18.940Z,1.40
2023-01-19T00:59:06.272Z,1.90
2023-01-19T01:03:22.465Z,1.30
2023-01-19T01:09:58.073Z,1.30
2023-01-19T01:13:48.258Z,1.20
2023-01-19T01:17:25.063Z,1.20
2023-01-19T01:20:16.449Z,1.20
2023-01-19T01:23:02.914Z,1.20
2023-01-19T01:25:49.162Z,1.70
2023-01-19T01:28:38.728Z,1.20
2023-01-19T01:31:24.824Z,1.10
2023-01-19T01:34:10.855Z,1.20
2023-01-19T01:36:56.854Z,1.20
2023-01-19T01:39:42.873Z,1.20
2023-01-19T01:42:30.715Z,1.40
2023-01-19T01:45:55.496Z,1.30
2023-01-19T01:48:55.168Z,1.20
2023-01-19T01:51:48.907Z,1.10
2023-01-19T01:54:35.240Z,1.10
2023-01-19T01:57:23.157Z,1.10
2023-01-19T02:00:10.815Z,1.20
2023-01-19T02:03:00.282Z,1.10
2023-01-19T02:05:46.610Z,1.10
2023-01-19T02:09:03.745Z,1.10
2023-01-19T02:12:09.170Z,1.10
2023-01-19T02:14:55.495Z,1.00
2023-01-19T02:17:41.786Z,1.00
2023-01-19T02:20:30.743Z,0.90
2023-01-19T02:23:50.404Z,1.00
2023-01-19T02:26:50.646Z,1.00
2023-01-19T02:29:36.778Z,1.10
2023-01-19T02:32:22.648Z,0.90
2023-01-19T02:35:09.200Z,0.70
2023-01-19T02:37:56.571Z,0.90
2023-01-19T02:40:44.352Z,0.90
2023-01-19T02:43:31.460Z,0.90
2023-01-19T02:46:17.440Z,0.90
2023-01-19T02:49:03.299Z,0.90
2023-01-19T02:51:52.641Z,0.90
2023-01-19T02:55:00.442Z,0.90
2023-01-19T02:58:28.393Z,0.90
2023-01-19T03:01:38.854Z,0.90
2023-01-19T03:04:37.159Z,0.80
2023-01-19T03:07:38.522Z,0.80
2023-01-19T03:11:01.717Z,0.80
2023-01-19T03:14:02.388Z,0.80
2023-01-19T03:16:55.178Z,0.80
2023-01-19T03:19:43.897Z,1.30
2023-01-19T03:22:30.207Z,0.80
2023-01-19T03:25:19.092Z,1.20
2023-01-19T03:28:05.679Z,1.10
2023-01-19T03:31:10.457Z,1.30
2023-01-19T03:34:05.699Z,0.70
2023-01-19T03:36:55.111Z,0.70
2023-01-19T03:39:42.228Z,0.70
2023-01-19T03:42:29.466Z,0.70
2023-01-19T03:45:16.164Z,0.70
2023-01-19T03:48:02.977Z,0.70
2023-01-19T03:50:49.018Z,0.90
2023-01-19T03:53:35.327Z,0.70
2023-01-19T03:56:25.765Z,0.70
2023-01-19T03:59:17.536Z,0.60
2023-01-19T04:02:03.643Z,0.60
2023-01-19T04:04:49.382Z,0.60
2023-01-19T04:07:35.452Z,0.60
2023-01-19T04:10:21.750Z,0.60
2023-01-19T04:13:11.016Z,0.50
2023-01-19T04:16:01.578Z,0.50
2023-01-19T04:18:48.488Z,0.60
2023-01-19T04:21:35.248Z,0.50
2023-01-19T04:24:22.057Z,1.00
2023-01-19T04:27:08.258Z,0.50
2023-01-19T04:29:54.446Z,0.50
2023-01-19T04:32:44.295Z,0.40
2023-01-19T04:35:30.723Z,0.30
2023-01-19T04:38:17.239Z,0.40
2023-01-19T04:41:03.404Z,0.40
2023-01-19T04:43:49.198Z,0.40
2023-01-19T04:46:35.252Z,0.40
2023-01-19T04:49:21.763Z,0.70
2023-01-19T04:52:07.694Z,0.40
2023-01-19T04:54:53.608Z,0.30
2023-01-19T04:57:40.139Z,0.30
2023-01-19T05:00:26.862Z,0.30
2023-01-19T05:03:12.993Z,0.30
2023-01-19T05:05:59.545Z,0.30
2023-01-19T05:08:45.643Z,0.20
2023-01-19T05:11:31.533Z,0.20
2023-01-19T05:14:17.526Z,0.20
2023-01-19T05:17:03.876Z,0.20
2023-01-19T05:20:16.522Z,0.40
2023-01-19T05:23:10.148Z,0.30
2023-01-19T05:25:56.845Z,0.30
2023-01-19T05:28:51.451Z,0.50
2023-01-19T05:31:53.320Z,0.40
2023-01-19T05:35:13.887Z,0.40
2023-01-19T05:38:23.375Z,0.40
2023-01-19T05:41:17.872Z,0.50
2023-01-19T05:44:05.478Z,0.50
2023-01-19T05:46:54.786Z,0.50
2023-01-19T05:50:02.361Z,0.50
2023-01-19T05:52:49.048Z,0.50
2023-01-19T05:55:41.426Z,0.50
2023-01-19T05:58:28.801Z,0.50
2023-01-19T06:01:22.049Z,0.50
2023-01-19T06:04:11.005Z,0.50
2023-01-19T06:07:06.089Z,0.50
2023-01-19T06:10:01.860Z,0.50
2023-01-19T06:12:49.219Z,0.50
2023-01-19T06:15:35.551Z,0.50
2023-01-19T06:18:25.076Z,0.60
2023-01-19T06:21:14.452Z,0.50
2023-01-19T06:24:13.783Z,0.50
2023-01-19T06:27:11.527Z,0.40
2023-01-19T06:30:06.714Z,0.40
2023-01-19T06:32:53.814Z,0.40
2023-01-19T06:35:44.185Z,0.40
2023-01-19T06:38:30.279Z,0.40
2023-01-19T06:41:16.324Z,0.30
2023-01-19T06:44:03.176Z,0.30
2023-01-19T06:46:49.227Z,0.30
2023-01-19T06:49:35.564Z,0.50
2023-01-19T06:52:21.856Z,0.30
2023-01-19T06:55:10.908Z,0.30
2023-01-19T06:57:59.783Z,0.30
2023-01-19T07:00:51.882Z,0.20
2023-01-19T07:03:38.670Z,0.20
2023-01-19T07:06:25.087Z,0.20
2023-01-19T07:09:14.209Z,0.20
2023-01-19T07:12:02.132Z,0.20
2023-01-19T07:14:50.231Z,0.20
2023-01-19T07:17:36.285Z,0.20
2023-01-19T07:20:22.751Z,0.10
2023-01-19T07:23:10.586Z,0.40
2023-01-19T07:26:01.739Z,0.10
2023-01-19T07:28:48.779Z,0.40
2023-01-19T07:31:35.165Z,0.10
2023-01-19T07:34:21.820Z,0.10
2023-01-19T07:37:08.653Z,0.10
2023-01-19T07:39:54.943Z,0.10
2023-01-19T07:42:46.488Z,0.10
2023-01-19T07:45:32.677Z,0.10
2023-01-19T07:48:18.670Z,0.50
2023-01-19T07:51:10.373Z,0.10
2023-01-19T07:53:58.752Z,0.00
2023-01-19T07:56:45.550Z,0.00
2023-01-19T07:59:32.537Z,0.00
2023-01-19T08:02:18.922Z,0.00
2023-01-19T08:05:06.016Z,0.00
2023-01-19T08:07:54.180Z,0.00
2023-01-19T08:10:40.490Z,0.00
2023-01-19T08:13:27.341Z,0.00
2023-01-19T08:16:13.537Z,0.00
2023-01-19T08:19:00.173Z,0.10
2023-01-19T08:21:46.486Z,0.20
2023-01-19T08:24:35.828Z,0.10
2023-01-19T08:27:22.262Z,0.40
2023-01-19T08:30:11.734Z,0.20
2023-01-19T08:33:04.359Z,0.30
2023-01-19T08:35:54.945Z,0.30
2023-01-19T08:38:44.139Z,0.40
2023-01-19T08:41:30.176Z,0.40
2023-01-19T08:44:16.888Z,0.40
2023-01-19T08:47:03.234Z,0.70
2023-01-19T08:49:49.864Z,0.60
2023-01-19T08:52:36.235Z,1.10
2023-01-19T08:55:22.462Z,0.50
2023-01-19T08:58:09.740Z,0.50
2023-01-19T09:00:58.096Z,0.50
2023-01-19T09:03:44.513Z,0.50
2023-01-19T09:06:33.823Z,0.50
2023-01-19T09:09:20.528Z,0.60
2023-01-19T09:12:07.448Z,0.60
2023-01-19T09:14:57.171Z,0.60
2023-01-19T09:17:43.598Z,0.60
2023-01-19T09:20:31.193Z,0.60
2023-01-19T09:23:19.735Z,0.60
2023-01-19T09:26:07.265Z,0.60
2023-01-19T09:28:53.441Z,0.60
2023-01-19T09:31:43.796Z,0.60
2023-01-19T09:34:32.393Z,0.70
2023-01-19T09:37:18.592Z,0.70
2023-01-19T09:40:08.472Z,0.80
2023-01-19T09:43:06.402Z,0.80
2023-01-19T09:45:58.097Z,0.80
2023-01-19T09:48:53.325Z,0.90
2023-01-19T09:51:42.038Z,1.00
2023-01-19T09:54:44.386Z,1.00
2023-01-19T09:57:32.154Z,1.00
2023-01-19T10:00:19.223Z,1.10
2023-01-19T10:03:16.252Z,1.20
2023-01-19T10:06:06.163Z,1.20
2023-01-19T10:08:59.054Z,1.20
2023-01-19T10:12:20.568Z,1.30
2023-01-19T10:15:15.015Z,1.40
2023-01-19T10:18:07.327Z,1.50
2023-01-19T10:21:10.666Z,1.60
2023-01-19T10:23:58.816Z,1.70
2023-01-19T10:26:49.715Z,2.30
2023-01-19T10:29:37.866Z,1.90
2023-01-19T10:32:30.996Z,2.00
2023-01-19T10:35:26.397Z,2.00
2023-01-19T10:38:15.023Z,2.10
2023-01-19T10:41:06.960Z,2.20
2023-01-19T10:44:04.376Z,2.30
2023-01-19T10:46:50.960Z,2.30
2023-01-19T10:49:44.718Z,2.30
2023-01-19T10:52:37.203Z,2.40
2023-01-19T10:55:35.209Z,2.50
2023-01-19T10:58:30.199Z,2.50
2023-01-19T11:01:21.816Z,2.60
2023-01-19T11:04:28.424Z,2.70
2023-01-19T11:07:26.109Z,2.80
2023-01-19T11:10:22.732Z,2.80
2023-01-19T11:13:15.893Z,2.90
2023-01-19T11:16:07.110Z,2.90
2023-01-19T11:18:55.646Z,3.00
2023-01-19T11:21:54.212Z,3.10
2023-01-19T11:24:47.450Z,3.20
2023-01-19T11:28:22.666Z,3.30
2023-01-19T11:31:22.968Z,3.40
2023-01-19T11:34:35.420Z,3.50
2023-01-19T11:38:12.209Z,3.50
2023-01-19T11:41:26.080Z,3.60
2023-01-19T11:44:39.496Z,3.60
2023-01-19T11:47:33.905Z,3.80
2023-01-19T11:50:44.775Z,3.80
2023-01-19T11:53:34.327Z,3.90
2023-01-19T11:56:26.119Z,4.00
2023-01-19T11:59:17.764Z,4.10
2023-01-19T12:02:25.909Z,4.20
2023-01-19T12:05:18.429Z,4.20
2023-01-19T12:08:09.560Z,4.30
2023-01-19T12:10:59.818Z,4.40
2023-01-19T12:13:47.387Z,4.40
2023-01-19T12:16:37.970Z,4.50
2023-01-19T12:19:41.033Z,4.70
2023-01-19T12:22:29.298Z,4.60
2023-01-19T12:25:24.841Z,4.70
2023-01-19T12:28:14.426Z,4.80
2023-01-19T12:31:01.628Z,4.80
2023-01-19T12:33:47.859Z,5.00
2023-01-19T12:36:41.096Z,5.00
2023-01-19T12:39:30.191Z,5.00
2023-01-19T12:42:18.911Z,5.10
2023-01-19T12:45:17.197Z,5.00
2023-01-19T12:48:04.334Z,5.00
2023-01-19T12:50:51.798Z,5.00
2023-01-19T12:53:37.906Z,5.20
2023-01-19T12:56:34.188Z,5.00
2023-01-19T12:59:27.554Z,4.90
2023-01-19T13:02:23.197Z,5.00
2023-01-19T13:05:19.774Z,5.00
2023-01-19T13:08:06.341Z,5.00
2023-01-19T13:11:19.787Z,5.00
2023-01-19T13:14:06.221Z,5.30
2023-01-19T13:17:01.653Z,5.10
2023-01-19T13:19:53.665Z,5.10
2023-01-19T13:23:00.470Z,5.20
2023-01-19T13:25:53.270Z,5.20
2023-01-19T13:28:42.664Z,5.40
2023-01-19T13:31:35.299Z,5.40
2023-01-19T13:34:27.896Z,5.40
2023-01-19T13:37:27.336Z,5.30
2023-01-19T13:40:27.385Z,5.30
2023-01-19T13:43:22.017Z,5.30
2023-01-19T13:46:13.051Z,5.30
2023-01-19T13:49:11.712Z,5.30
2023-01-19T13:52:11.253Z,5.40
2023-01-19T13:55:03.900Z,5.40
2023-01-19T13:57:51.679Z,5.40
2023-01-19T14:00:38.487Z,5.50
2023-01-19T14:03:25.096Z,5.50
2023-01-19T14:06:41.664Z,5.50
2023-01-19T14:09:27.809Z,5.60
2023-01-19T14:12:18.629Z,5.50
2023-01-19T14:15:11.234Z,5.50
2023-01-19T14:18:18.275Z,5.60
2023-01-19T14:21:15.566Z,5.60
2023-01-19T14:24:19.142Z,5.60
2023-01-19T14:27:20.951Z,5.60
2023-01-19T14:30:25.166Z,5.70
2023-01-19T14:33:30.288Z,5.80
2023-01-19T14:36:41.979Z,5.80
2023-01-19T14:39:36.280Z,5.80
2023-01-19T14:42:37.525Z,5.90
2023-01-19T14:45:29.569Z,5.90
2023-01-19T14:48:18.394Z,5.90
2023-01-19T14:51:05.443Z,5.90
2023-01-19T14:53:58.905Z,5.90
2023-01-19T14:56:47.850Z,6.00
2023-01-19T14:59:34.122Z,6.20
2023-01-19T15:02:20.244Z,6.20
2023-01-19T15:05:08.720Z,6.20
2023-01-19T15:07:55.432Z,6.10
2023-01-19T15:10:41.961Z,5.90
2023-01-19T15:13:28.002Z,5.90
2023-01-19T15:16:14.142Z,5.70
2023-01-19T15:19:00.627Z,5.50
2023-01-19T15:21:47.014Z,5.40
2023-01-19T15:24:33.158Z,5.40
2023-01-19T15:27:21.628Z,5.20
2023-01-19T15:30:21.554Z,5.10
2023-01-19T15:33:22.246Z,5.00
2023-01-19T15:36:13.482Z,5.00
2023-01-19T15:38:59.755Z,4.90
2023-01-19T15:41:45.812Z,4.80
2023-01-19T15:44:31.667Z,4.80
2023-01-19T15:47:17.701Z,4.70
2023-01-19T15:50:04.859Z,4.70
2023-01-19T15:52:50.947Z,4.60
2023-01-19T15:55:36.751Z,4.80
2023-01-19T15:58:23.588Z,4.60
2023-01-19T16:01:18.728Z,4.60
2023-01-19T16:04:07.249Z,4.60
2023-01-19T16:06:53.543Z,4.60
2023-01-19T16:09:40.358Z,4.60
2023-01-19T16:12:26.611Z,4.60
2023-01-19T16:15:13.086Z,4.60
2023-01-19T16:17:59.317Z,4.50
2023-01-19T16:20:45.073Z,4.50
2023-01-19T16:23:31.707Z,4.50
2023-01-19T16:26:30.307Z,4.40
2023-01-19T16:29:16.843Z,4.50
2023-01-19T16:32:03.069Z,4.50
2023-01-19T16:34:49.096Z,4.50
2023-01-19T16:37:36.303Z,4.40
2023-01-19T16:40:22.699Z,4.30
2023-01-19T16:43:08.502Z,4.30
2023-01-19T16:46:01.181Z,4.30
2023-01-19T16:48:47.277Z,4.20
2023-01-19T16:51:33.542Z,4.20
2023-01-19T16:54:22.031Z,4.10
2023-01-19T16:57:08.990Z,4.00
2023-01-19T16:59:55.688Z,3.90
2023-01-19T17:02:43.180Z,3.80
2023-01-19T17:05:29.789Z,3.70
2023-01-19T17:08:17.417Z,3.70
2023-01-19T17:11:20.851Z,3.60
2023-01-19T17:14:12.566Z,3.50
2023-01-19T17:16:59.769Z,3.50
2023-01-19T17:19:45.624Z,3.40
2023-01-19T17:22:31.579Z,3.40
2023-01-19T17:25:17.512Z,3.40
2023-01-19T17:28:03.567Z,3.30
2023-01-19T17:30:51.591Z,3.20
2023-01-19T17:33:40.682Z,3.20
2023-01-19T17:36:29.044Z,3.10
2023-01-19T17:39:17.050Z,3.00
2023-01-19T17:42:03.413Z,3.00
2023-01-19T17:44:49.694Z,3.00
2023-01-19T17:47:35.550Z,3.20
2023-01-19T17:50:22.129Z,2.90
2023-01-19T17:53:08.390Z,2.80
2023-01-19T17:55:54.449Z,3.30
2023-01-19T17:58:41.483Z,2.80
2023-01-19T18:01:30.306Z,2.70
2023-01-19T18:04:16.509Z,2.80
2023-01-19T18:07:02.628Z,2.60
2023-01-19T18:09:48.541Z,2.60
2023-01-19T18:12:34.822Z,2.50
2023-01-19T18:15:20.730Z,2.50
2023-01-19T18:18:06.615Z,2.50
2023-01-19T18:20:52.672Z,2.50
2023-01-19T18:23:39.377Z,2.50
2023-01-19T18:26:25.773Z,2.50
2023-01-19T18:29:12.119Z,3.00
2023-01-19T18:31:57.941Z,2.40
2023-01-19T18:34:43.974Z,2.40
2023-01-19T18:37:30.026Z,2.40
2023-01-19T18:40:16.027Z,2.50
2023-01-19T19:07:31.129Z,2.30
2023-01-19T19:20:59.026Z,2.20
2023-01-19T19:24:16.145Z,2.20
2023-01-19T19:32:24.861Z,2.00
2023-01-19T19:35:21.416Z,2.00
2023-01-19T19:39:58.049Z,1.90
2023-01-19T19:42:44.165Z,1.80
2023-01-19T19:45:30.875Z,1.80
2023-01-19T19:48:16.693Z,1.80
2023-01-19T19:51:18.172Z,1.80
2023-01-19T19:54:05.662Z,1.80
2023-01-19T19:56:54.089Z,1.80
2023-01-19T19:59:40.849Z,1.80
2023-01-19T20:02:26.859Z,1.70
2023-01-19T20:05:12.632Z,1.90
2023-01-19T20:07:58.611Z,1.70
2023-01-19T20:10:45.140Z,1.60
2023-01-19T20:13:31.960Z,1.60
2023-01-19T20:16:21.419Z,1.60
2023-01-19T20:19:08.388Z,1.60
2023-01-19T20:21:55.021Z,1.60
2023-01-19T20:24:41.359Z,1.90
2023-01-19T20:27:27.487Z,1.70
2023-01-19T20:30:14.569Z,1.70
2023-01-19T20:33:01.903Z,1.40
2023-01-19T20:35:48.071Z,2.40
2023-01-19T20:38:34.192Z,1.70
2023-01-19T20:41:21.841Z,1.60
2023-01-19T20:44:07.799Z,1.70
2023-01-19T20:46:54.680Z,1.60
2023-01-19T20:49:41.159Z,1.60
2023-01-19T20:52:27.358Z,1.60
2023-01-19T20:55:14.152Z,1.60
2023-01-19T20:58:00.344Z,1.60
2023-01-19T21:00:46.164Z,1.60
2023-01-19T21:03:32.082Z,2.20
2023-01-19T21:06:19.814Z,1.60
2023-01-19T21:09:07.318Z,1.60
2023-01-19T21:11:55.915Z,1.60
2023-01-19T21:14:45.777Z,1.60
2023-01-19T21:17:31.931Z,2.10
2023-01-19T21:20:18.073Z,1.50
2023-01-19T21:23:04.011Z,1.50
2023-01-19T21:25:54.910Z,1.60
2023-01-19T21:28:41.606Z,1.50
2023-01-19T21:31:28.599Z,1.50
2023-01-19T21:34:14.956Z,2.10
2023-01-19T21:37:01.545Z,1.80
2023-01-19T21:39:47.572Z,1.50
2023-01-19T21:42:33.425Z,1.50
2023-01-19T21:45:19.456Z,1.50
2023-01-19T21:48:05.428Z,1.50
2023-01-19T21:50:58.366Z,1.50
2023-01-19T21:53:44.561Z,1.50
2023-01-19T21:56:30.996Z,1.50
2023-01-19T21:59:17.626Z,1.50
2023-01-19T22:02:05.290Z,1.40
2023-01-19T22:04:51.690Z,1.70
2023-01-19T22:07:38.319Z,1.20
2023-01-19T22:10:24.189Z,2.10
2023-01-19T22:13:10.246Z,1.40
2023-01-19T22:16:00.854Z,1.40
2023-01-19T22:18:56.388Z,1.40
2023-01-19T22:21:42.971Z,1.30
2023-01-19T22:24:29.445Z,1.30
2023-01-19T22:27:15.745Z,1.30
2023-01-19T22:30:01.875Z,1.30
2023-01-19T22:32:47.856Z,1.40
2023-01-19T22:35:34.340Z,1.40
2023-01-19T22:38:20.731Z,1.40
2023-01-19T22:41:18.384Z,1.60
2023-01-19T22:44:07.314Z,1.50
2023-01-19T22:46:55.671Z,1.30
2023-01-19T22:49:45.052Z,1.40
2023-01-19T22:52:31.270Z,1.40
2023-01-19T22:55:17.681Z,1.40
2023-01-19T22:58:03.700Z,1.50
2023-01-19T23:00:50.248Z,1.50
2023-01-19T23:03:37.248Z,1.60
2023-01-19T23:06:28.065Z,1.70
2023-01-19T23:09:14.618Z,1.70
2023-01-19T23:12:01.036Z,1.80
2023-01-19T23:14:47.340Z,1.80
2023-01-19T23:17:33.488Z,1.90
2023-01-19T23:20:20.127Z,1.90
2023-01-19T23:23:06.298Z,2.30
2023-01-19T23:25:52.494Z,2.00
2023-01-19T23:28:39.254Z,2.00
2023-01-19T23:31:26.388Z,2.00
2023-01-19T23:34:13.631Z,2.10
2023-01-19T23:37:01.963Z,2.10
2023-01-19T23:39:48.156Z,2.10
2023-01-19T23:42:34.499Z,2.70
2023-01-19T23:45:20.348Z,2.50
2023-01-19T23:48:06.624Z,2.20
2023-01-19T23:50:52.711Z,2.20
2023-01-19T23:53:38.848Z,2.30
2023-01-19T23:56:27.818Z,2.20
2023-01-19T23:59:16.403Z,2.50
